sensor_id;sensor_type;location;lat;lon;timestamp;P1;durP1;ratioP1;P2;durP2;ratioP2
789;SDS011;378;48.844;9.156;2022-10-12T00:00:51;24.50;;;13.15;;
789;SDS011;378;48.844;9.156;2022-10-12T00:03:18;25.17;;;13.27;;
789;SDS011;378;48.844;9.156;2022-10-12T00:05:47;29.38;;;13.70;;
789;SDS011;378;48.844;9.156;2022-10-12T00:08:25;22.08;;;12.27;;
789;SDS011;378;48.844;9.156;2022-10-12T00:10:52;28.35;;;13.27;;
789;SDS011;378;48.844;9.156;2022-10-12T00:13:19;25.67;;;12.70;;
789;SDS011;378;48.844;9.156;2022-10-12T00:15:46;25.40;;;12.20;;
789;SDS011;378;48.844;9.156;2022-10-12T00:18:13;23.77;;;12.98;;
789;SDS011;378;48.844;9.156;2022-10-12T00:20:40;31.67;;;13.57;;
789;SDS011;378;48.844;9.156;2022-10-12T00:23:08;26.90;;;13.55;;
789;SDS011;378;48.844;9.156;2022-10-12T00:25:35;34.13;;;14.95;;
789;SDS011;378;48.844;9.156;2022-10-12T00:28:03;35.63;;;15.23;;
789;SDS011;378;48.844;9.156;2022-10-12T00:30:30;30.05;;;12.80;;
789;SDS011;378;48.844;9.156;2022-10-12T00:32:57;25.20;;;13.32;;
789;SDS011;378;48.844;9.156;2022-10-12T00:35:24;37.83;;;15.13;;
789;SDS011;378;48.844;9.156;2022-10-12T00:37:53;27.40;;;14.15;;
789;SDS011;378;48.844;9.156;2022-10-12T00:40:21;28.63;;;14.73;;
789;SDS011;378;48.844;9.156;2022-10-12T00:42:48;27.95;;;13.50;;
789;SDS011;378;48.844;9.156;2022-10-12T00:45:15;29.55;;;14.45;;
789;SDS011;378;48.844;9.156;2022-10-12T00:47:43;30.17;;;15.75;;
789;SDS011;378;48.844;9.156;2022-10-12T00:50:16;28.10;;;14.60;;
789;SDS011;378;48.844;9.156;2022-10-12T00:52:49;33.05;;;15.02;;
789;SDS011;378;48.844;9.156;2022-10-12T00:55:24;30.88;;;15.55;;
789;SDS011;378;48.844;9.156;2022-10-12T00:57:53;27.38;;;14.55;;
789;SDS011;378;48.844;9.156;2022-10-12T01:00:20;30.08;;;15.43;;
789;SDS011;378;48.844;9.156;2022-10-12T01:02:49;38.67;;;14.85;;
789;SDS011;378;48.844;9.156;2022-10-12T01:05:18;36.95;;;16.10;;
789;SDS011;378;48.844;9.156;2022-10-12T01:07:46;30.05;;;15.10;;
789;SDS011;378;48.844;9.156;2022-10-12T01:10:12;31.40;;;15.63;;
789;SDS011;378;48.844;9.156;2022-10-12T01:12:41;30.73;;;15.30;;
789;SDS011;378;48.844;9.156;2022-10-12T01:15:09;32.33;;;15.40;;
789;SDS011;378;48.844;9.156;2022-10-12T01:17:39;34.45;;;15.95;;
789;SDS011;378;48.844;9.156;2022-10-12T01:20:23;34.30;;;15.98;;
789;SDS011;378;48.844;9.156;2022-10-12T01:23:10;33.63;;;15.30;;
789;SDS011;378;48.844;9.156;2022-10-12T01:25:53;31.88;;;16.00;;
789;SDS011;378;48.844;9.156;2022-10-12T01:28:33;39.10;;;15.45;;
789;SDS011;378;48.844;9.156;2022-10-12T01:31:09;33.60;;;16.55;;
789;SDS011;378;48.844;9.156;2022-10-12T01:33:46;32.33;;;16.80;;
789;SDS011;378;48.844;9.156;2022-10-12T01:36:18;33.80;;;16.88;;
789;SDS011;378;48.844;9.156;2022-10-12T01:38:55;37.08;;;15.65;;
789;SDS011;378;48.844;9.156;2022-10-12T01:41:28;31.35;;;14.60;;
789;SDS011;378;48.844;9.156;2022-10-12T01:44:00;29.33;;;15.05;;
789;SDS011;378;48.844;9.156;2022-10-12T01:46:41;27.98;;;14.95;;
789;SDS011;378;48.844;9.156;2022-10-12T01:49:09;36.58;;;16.23;;
789;SDS011;378;48.844;9.156;2022-10-12T01:51:43;35.30;;;15.85;;
789;SDS011;378;48.844;9.156;2022-10-12T01:54:33;29.55;;;15.50;;
789;SDS011;378;48.844;9.156;2022-10-12T01:57:10;31.52;;;14.88;;
789;SDS011;378;48.844;9.156;2022-10-12T01:59:46;30.98;;;15.88;;
789;SDS011;378;48.844;9.156;2022-10-12T02:02:23;31.73;;;15.85;;
789;SDS011;378;48.844;9.156;2022-10-12T02:04:57;35.67;;;16.35;;
789;SDS011;378;48.844;9.156;2022-10-12T02:07:29;29.90;;;15.88;;
789;SDS011;378;48.844;9.156;2022-10-12T02:10:03;36.25;;;16.13;;
789;SDS011;378;48.844;9.156;2022-10-12T02:12:35;30.20;;;15.43;;
789;SDS011;378;48.844;9.156;2022-10-12T02:15:06;43.97;;;16.58;;
789;SDS011;378;48.844;9.156;2022-10-12T02:17:36;38.38;;;17.15;;
789;SDS011;378;48.844;9.156;2022-10-12T02:20:05;33.60;;;15.75;;
789;SDS011;378;48.844;9.156;2022-10-12T02:22:37;36.95;;;16.23;;
789;SDS011;378;48.844;9.156;2022-10-12T02:25:07;33.95;;;16.35;;
789;SDS011;378;48.844;9.156;2022-10-12T02:27:37;32.83;;;15.68;;
789;SDS011;378;48.844;9.156;2022-10-12T02:30:08;26.88;;;14.88;;
789;SDS011;378;48.844;9.156;2022-10-12T02:32:38;32.15;;;16.08;;
789;SDS011;378;48.844;9.156;2022-10-12T02:35:13;30.85;;;16.02;;
789;SDS011;378;48.844;9.156;2022-10-12T02:37:47;36.22;;;16.42;;
789;SDS011;378;48.844;9.156;2022-10-12T02:40:18;35.97;;;16.02;;
789;SDS011;378;48.844;9.156;2022-10-12T02:42:50;43.78;;;17.38;;
789;SDS011;378;48.844;9.156;2022-10-12T02:45:20;39.90;;;17.20;;
789;SDS011;378;48.844;9.156;2022-10-12T02:47:51;38.92;;;16.95;;
789;SDS011;378;48.844;9.156;2022-10-12T02:50:20;40.75;;;18.30;;
789;SDS011;378;48.844;9.156;2022-10-12T02:52:49;34.28;;;16.83;;
789;SDS011;378;48.844;9.156;2022-10-12T02:55:17;36.40;;;16.60;;
789;SDS011;378;48.844;9.156;2022-10-12T02:57:44;40.70;;;17.65;;
789;SDS011;378;48.844;9.156;2022-10-12T03:00:11;34.78;;;16.95;;
789;SDS011;378;48.844;9.156;2022-10-12T03:02:38;37.03;;;17.15;;
789;SDS011;378;48.844;9.156;2022-10-12T03:05:07;31.13;;;15.45;;
789;SDS011;378;48.844;9.156;2022-10-12T03:07:34;29.80;;;15.15;;
789;SDS011;378;48.844;9.156;2022-10-12T03:10:00;32.28;;;15.93;;
789;SDS011;378;48.844;9.156;2022-10-12T03:12:27;30.67;;;16.40;;
789;SDS011;378;48.844;9.156;2022-10-12T03:14:54;30.25;;;16.38;;
789;SDS011;378;48.844;9.156;2022-10-12T03:17:21;34.25;;;16.20;;
789;SDS011;378;48.844;9.156;2022-10-12T03:19:48;31.85;;;16.55;;
789;SDS011;378;48.844;9.156;2022-10-12T03:22:16;34.10;;;16.02;;
789;SDS011;378;48.844;9.156;2022-10-12T03:24:43;40.50;;;16.38;;
789;SDS011;378;48.844;9.156;2022-10-12T03:27:10;29.67;;;15.85;;
789;SDS011;378;48.844;9.156;2022-10-12T03:29:37;30.10;;;16.35;;
789;SDS011;378;48.844;9.156;2022-10-12T03:32:04;33.40;;;16.33;;
789;SDS011;378;48.844;9.156;2022-10-12T03:34:30;30.17;;;16.52;;
789;SDS011;378;48.844;9.156;2022-10-12T03:36:57;32.95;;;17.30;;
789;SDS011;378;48.844;9.156;2022-10-12T03:39:25;33.00;;;16.02;;
789;SDS011;378;48.844;9.156;2022-10-12T03:41:52;26.08;;;14.80;;
789;SDS011;378;48.844;9.156;2022-10-12T03:44:19;37.70;;;16.50;;
789;SDS011;378;48.844;9.156;2022-10-12T03:46:46;36.75;;;16.85;;
789;SDS011;378;48.844;9.156;2022-10-12T03:49:12;31.63;;;16.77;;
789;SDS011;378;48.844;9.156;2022-10-12T03:51:39;32.47;;;15.95;;
789;SDS011;378;48.844;9.156;2022-10-12T03:54:06;35.17;;;16.95;;
789;SDS011;378;48.844;9.156;2022-10-12T03:56:34;34.45;;;16.63;;
789;SDS011;378;48.844;9.156;2022-10-12T03:59:01;32.10;;;15.50;;
789;SDS011;378;48.844;9.156;2022-10-12T04:01:28;40.05;;;17.38;;
789;SDS011;378;48.844;9.156;2022-10-12T04:03:55;29.70;;;16.17;;
789;SDS011;378;48.844;9.156;2022-10-12T04:06:21;35.17;;;16.77;;
789;SDS011;378;48.844;9.156;2022-10-12T04:08:50;32.88;;;15.75;;
789;SDS011;378;48.844;9.156;2022-10-12T04:11:17;32.67;;;16.60;;
789;SDS011;378;48.844;9.156;2022-10-12T04:13:45;33.38;;;16.77;;
789;SDS011;378;48.844;9.156;2022-10-12T04:16:12;36.85;;;16.75;;
789;SDS011;378;48.844;9.156;2022-10-12T04:18:39;32.70;;;15.80;;
789;SDS011;378;48.844;9.156;2022-10-12T04:21:08;34.47;;;16.42;;
789;SDS011;378;48.844;9.156;2022-10-12T04:23:37;35.55;;;16.75;;
789;SDS011;378;48.844;9.156;2022-10-12T04:26:04;28.77;;;15.27;;
789;SDS011;378;48.844;9.156;2022-10-12T04:28:31;35.75;;;17.52;;
789;SDS011;378;48.844;9.156;2022-10-12T04:31:00;30.75;;;16.15;;
789;SDS011;378;48.844;9.156;2022-10-12T04:33:26;29.48;;;16.25;;
789;SDS011;378;48.844;9.156;2022-10-12T04:35:53;38.35;;;16.38;;
789;SDS011;378;48.844;9.156;2022-10-12T04:38:20;43.90;;;18.48;;
789;SDS011;378;48.844;9.156;2022-10-12T04:40:47;34.28;;;16.90;;
789;SDS011;378;48.844;9.156;2022-10-12T04:43:14;32.08;;;16.60;;
789;SDS011;378;48.844;9.156;2022-10-12T04:45:41;33.90;;;17.00;;
789;SDS011;378;48.844;9.156;2022-10-12T04:48:10;37.75;;;16.58;;
789;SDS011;378;48.844;9.156;2022-10-12T04:50:36;32.47;;;16.63;;
789;SDS011;378;48.844;9.156;2022-10-12T04:53:03;31.70;;;16.95;;
789;SDS011;378;48.844;9.156;2022-10-12T04:55:30;30.45;;;17.05;;
789;SDS011;378;48.844;9.156;2022-10-12T04:57:57;30.73;;;16.80;;
789;SDS011;378;48.844;9.156;2022-10-12T05:00:24;32.17;;;17.00;;
789;SDS011;378;48.844;9.156;2022-10-12T05:02:51;34.95;;;16.95;;
789;SDS011;378;48.844;9.156;2022-10-12T05:05:19;32.33;;;15.73;;
789;SDS011;378;48.844;9.156;2022-10-12T05:07:46;28.88;;;14.52;;
789;SDS011;378;48.844;9.156;2022-10-12T05:10:13;28.33;;;15.30;;
789;SDS011;378;48.844;9.156;2022-10-12T05:12:40;25.73;;;14.13;;
789;SDS011;378;48.844;9.156;2022-10-12T05:15:08;27.73;;;15.25;;
789;SDS011;378;48.844;9.156;2022-10-12T05:17:35;31.27;;;15.98;;
789;SDS011;378;48.844;9.156;2022-10-12T05:20:02;29.30;;;15.45;;
789;SDS011;378;48.844;9.156;2022-10-12T05:22:31;28.83;;;15.65;;
789;SDS011;378;48.844;9.156;2022-10-12T05:24:59;32.58;;;15.68;;
789;SDS011;378;48.844;9.156;2022-10-12T05:27:26;28.15;;;15.52;;
789;SDS011;378;48.844;9.156;2022-10-12T05:29:53;33.08;;;16.42;;
789;SDS011;378;48.844;9.156;2022-10-12T05:32:20;29.85;;;16.27;;
789;SDS011;378;48.844;9.156;2022-10-12T05:34:46;33.05;;;16.30;;
789;SDS011;378;48.844;9.156;2022-10-12T05:37:13;28.88;;;15.70;;
789;SDS011;378;48.844;9.156;2022-10-12T05:39:41;33.22;;;15.73;;
789;SDS011;378;48.844;9.156;2022-10-12T05:42:08;31.20;;;16.52;;
789;SDS011;378;48.844;9.156;2022-10-12T05:44:35;30.75;;;16.17;;
789;SDS011;378;48.844;9.156;2022-10-12T05:47:02;41.35;;;16.35;;
789;SDS011;378;48.844;9.156;2022-10-12T05:49:29;34.47;;;15.68;;
789;SDS011;378;48.844;9.156;2022-10-12T05:51:56;35.00;;;15.48;;
789;SDS011;378;48.844;9.156;2022-10-12T05:54:22;33.28;;;15.88;;
789;SDS011;378;48.844;9.156;2022-10-12T05:56:50;35.92;;;17.15;;
789;SDS011;378;48.844;9.156;2022-10-12T05:59:17;31.35;;;15.85;;
789;SDS011;378;48.844;9.156;2022-10-12T06:01:44;28.67;;;15.57;;
789;SDS011;378;48.844;9.156;2022-10-12T06:04:11;31.52;;;15.65;;
789;SDS011;378;48.844;9.156;2022-10-12T06:06:38;29.95;;;15.40;;
789;SDS011;378;48.844;9.156;2022-10-12T06:09:05;34.45;;;16.15;;
789;SDS011;378;48.844;9.156;2022-10-12T06:11:32;31.95;;;16.98;;
789;SDS011;378;48.844;9.156;2022-10-12T06:14:00;37.78;;;16.95;;
789;SDS011;378;48.844;9.156;2022-10-12T06:16:27;35.75;;;16.30;;
789;SDS011;378;48.844;9.156;2022-10-12T06:18:54;37.45;;;16.13;;
789;SDS011;378;48.844;9.156;2022-10-12T06:21:21;40.80;;;16.25;;
789;SDS011;378;48.844;9.156;2022-10-12T06:23:48;43.25;;;17.55;;
789;SDS011;378;48.844;9.156;2022-10-12T06:26:14;38.35;;;16.58;;
789;SDS011;378;48.844;9.156;2022-10-12T06:28:41;34.22;;;15.65;;
789;SDS011;378;48.844;9.156;2022-10-12T06:31:09;39.45;;;17.35;;
789;SDS011;378;48.844;9.156;2022-10-12T06:33:36;41.00;;;16.83;;
789;SDS011;378;48.844;9.156;2022-10-12T06:36:03;42.13;;;16.13;;
789;SDS011;378;48.844;9.156;2022-10-12T06:38:30;35.35;;;17.70;;
789;SDS011;378;48.844;9.156;2022-10-12T06:40:57;39.70;;;16.33;;
789;SDS011;378;48.844;9.156;2022-10-12T06:43:24;34.40;;;15.95;;
789;SDS011;378;48.844;9.156;2022-10-12T06:45:50;41.05;;;16.67;;
789;SDS011;378;48.844;9.156;2022-10-12T06:48:19;40.95;;;17.10;;
789;SDS011;378;48.844;9.156;2022-10-12T06:50:45;48.58;;;18.58;;
789;SDS011;378;48.844;9.156;2022-10-12T06:53:12;48.03;;;20.23;;
789;SDS011;378;48.844;9.156;2022-10-12T06:55:39;38.42;;;16.23;;
789;SDS011;378;48.844;9.156;2022-10-12T06:58:06;35.50;;;16.63;;
789;SDS011;378;48.844;9.156;2022-10-12T07:00:33;42.45;;;16.10;;
789;SDS011;378;48.844;9.156;2022-10-12T07:03:00;32.80;;;15.95;;
789;SDS011;378;48.844;9.156;2022-10-12T07:05:29;39.80;;;16.38;;
789;SDS011;378;48.844;9.156;2022-10-12T07:07:55;32.33;;;16.98;;
789;SDS011;378;48.844;9.156;2022-10-12T07:10:22;37.72;;;15.75;;
789;SDS011;378;48.844;9.156;2022-10-12T07:12:50;34.22;;;15.75;;
789;SDS011;378;48.844;9.156;2022-10-12T07:15:16;38.78;;;16.75;;
789;SDS011;378;48.844;9.156;2022-10-12T07:17:43;43.55;;;16.70;;
789;SDS011;378;48.844;9.156;2022-10-12T07:20:10;39.35;;;17.88;;
789;SDS011;378;48.844;9.156;2022-10-12T07:22:38;49.85;;;19.35;;
789;SDS011;378;48.844;9.156;2022-10-12T07:25:05;44.50;;;18.08;;
789;SDS011;378;48.844;9.156;2022-10-12T07:27:33;38.17;;;17.02;;
789;SDS011;378;48.844;9.156;2022-10-12T07:29:59;41.53;;;16.15;;
789;SDS011;378;48.844;9.156;2022-10-12T07:32:26;34.60;;;16.02;;
789;SDS011;378;48.844;9.156;2022-10-12T07:34:53;36.28;;;16.83;;
789;SDS011;378;48.844;9.156;2022-10-12T07:37:20;37.15;;;16.25;;
789;SDS011;378;48.844;9.156;2022-10-12T07:39:48;34.70;;;16.48;;
789;SDS011;378;48.844;9.156;2022-10-12T07:42:21;41.67;;;16.25;;
789;SDS011;378;48.844;9.156;2022-10-12T07:44:47;46.38;;;15.80;;
789;SDS011;378;48.844;9.156;2022-10-12T07:47:14;44.13;;;17.08;;
789;SDS011;378;48.844;9.156;2022-10-12T07:49:41;47.80;;;18.02;;
789;SDS011;378;48.844;9.156;2022-10-12T07:52:08;43.72;;;17.08;;
789;SDS011;378;48.844;9.156;2022-10-12T07:54:35;33.95;;;17.65;;
789;SDS011;378;48.844;9.156;2022-10-12T07:57:03;36.88;;;17.38;;
789;SDS011;378;48.844;9.156;2022-10-12T07:59:30;41.65;;;17.58;;
789;SDS011;378;48.844;9.156;2022-10-12T08:01:57;43.95;;;17.45;;
789;SDS011;378;48.844;9.156;2022-10-12T08:04:24;36.55;;;17.45;;
789;SDS011;378;48.844;9.156;2022-10-12T08:06:51;32.80;;;16.83;;
789;SDS011;378;48.844;9.156;2022-10-12T08:09:17;39.35;;;16.88;;
789;SDS011;378;48.844;9.156;2022-10-12T08:11:44;39.30;;;16.95;;
789;SDS011;378;48.844;9.156;2022-10-12T08:14:13;30.10;;;16.80;;
789;SDS011;378;48.844;9.156;2022-10-12T08:16:41;34.88;;;17.80;;
789;SDS011;378;48.844;9.156;2022-10-12T08:19:08;35.47;;;16.70;;
789;SDS011;378;48.844;9.156;2022-10-12T08:21:35;39.33;;;17.67;;
789;SDS011;378;48.844;9.156;2022-10-12T08:24:02;34.95;;;16.70;;
789;SDS011;378;48.844;9.156;2022-10-12T08:26:29;34.95;;;16.65;;
789;SDS011;378;48.844;9.156;2022-10-12T08:28:57;41.05;;;17.17;;
789;SDS011;378;48.844;9.156;2022-10-12T08:31:25;37.60;;;16.95;;
789;SDS011;378;48.844;9.156;2022-10-12T08:33:52;37.78;;;16.85;;
789;SDS011;378;48.844;9.156;2022-10-12T08:36:19;37.22;;;17.08;;
789;SDS011;378;48.844;9.156;2022-10-12T08:38:48;32.63;;;17.63;;
789;SDS011;378;48.844;9.156;2022-10-12T08:41:20;44.00;;;17.17;;
789;SDS011;378;48.844;9.156;2022-10-12T08:43:58;40.47;;;17.88;;
789;SDS011;378;48.844;9.156;2022-10-12T08:46:45;39.72;;;16.38;;
789;SDS011;378;48.844;9.156;2022-10-12T08:49:13;37.35;;;15.90;;
789;SDS011;378;48.844;9.156;2022-10-12T08:51:45;41.55;;;16.45;;
789;SDS011;378;48.844;9.156;2022-10-12T08:54:15;50.85;;;16.95;;
789;SDS011;378;48.844;9.156;2022-10-12T08:56:45;35.88;;;17.10;;
789;SDS011;378;48.844;9.156;2022-10-12T08:59:12;41.72;;;17.13;;
789;SDS011;378;48.844;9.156;2022-10-12T09:01:47;35.85;;;16.23;;
789;SDS011;378;48.844;9.156;2022-10-12T09:04:28;32.58;;;15.68;;
789;SDS011;378;48.844;9.156;2022-10-12T09:07:11;32.75;;;16.80;;
789;SDS011;378;48.844;9.156;2022-10-12T09:09:45;35.22;;;16.23;;
789;SDS011;378;48.844;9.156;2022-10-12T09:12:26;38.58;;;16.70;;
789;SDS011;378;48.844;9.156;2022-10-12T09:15:04;36.35;;;16.45;;
789;SDS011;378;48.844;9.156;2022-10-12T09:17:39;32.55;;;15.82;;
789;SDS011;378;48.844;9.156;2022-10-12T09:20:20;31.15;;;15.20;;
789;SDS011;378;48.844;9.156;2022-10-12T09:22:49;29.02;;;14.90;;
789;SDS011;378;48.844;9.156;2022-10-12T09:25:17;34.13;;;14.85;;
789;SDS011;378;48.844;9.156;2022-10-12T09:27:50;29.90;;;15.65;;
789;SDS011;378;48.844;9.156;2022-10-12T09:30:18;36.72;;;16.88;;
789;SDS011;378;48.844;9.156;2022-10-12T09:32:50;34.22;;;15.65;;
789;SDS011;378;48.844;9.156;2022-10-12T09:35:30;31.58;;;14.93;;
789;SDS011;378;48.844;9.156;2022-10-12T09:37:58;28.80;;;13.70;;
789;SDS011;378;48.844;9.156;2022-10-12T09:40:28;27.67;;;14.77;;
789;SDS011;378;48.844;9.156;2022-10-12T09:42:57;31.00;;;15.18;;
789;SDS011;378;48.844;9.156;2022-10-12T09:45:25;30.42;;;13.93;;
789;SDS011;378;48.844;9.156;2022-10-12T09:48:14;30.23;;;15.88;;
789;SDS011;378;48.844;9.156;2022-10-12T09:50:47;27.65;;;12.80;;
789;SDS011;378;48.844;9.156;2022-10-12T09:53:29;25.33;;;13.18;;
789;SDS011;378;48.844;9.156;2022-10-12T09:55:59;24.50;;;11.80;;
789;SDS011;378;48.844;9.156;2022-10-12T09:58:33;25.45;;;11.32;;
789;SDS011;378;48.844;9.156;2022-10-12T10:01:11;19.67;;;11.05;;
789;SDS011;378;48.844;9.156;2022-10-12T10:03:44;23.73;;;10.77;;
789;SDS011;378;48.844;9.156;2022-10-12T10:06:12;26.48;;;12.00;;
789;SDS011;378;48.844;9.156;2022-10-12T10:08:43;27.23;;;12.10;;
789;SDS011;378;48.844;9.156;2022-10-12T10:11:13;27.00;;;11.70;;
789;SDS011;378;48.844;9.156;2022-10-12T10:13:48;27.17;;;11.93;;
789;SDS011;378;48.844;9.156;2022-10-12T10:16:17;23.23;;;11.15;;
789;SDS011;378;48.844;9.156;2022-10-12T10:18:49;24.88;;;11.10;;
789;SDS011;378;48.844;9.156;2022-10-12T10:21:26;23.60;;;10.65;;
789;SDS011;378;48.844;9.156;2022-10-12T10:23:56;24.45;;;10.52;;
789;SDS011;378;48.844;9.156;2022-10-12T10:26:25;26.33;;;11.25;;
789;SDS011;378;48.844;9.156;2022-10-12T10:28:56;25.58;;;10.85;;
789;SDS011;378;48.844;9.156;2022-10-12T10:31:40;24.95;;;11.65;;
789;SDS011;378;48.844;9.156;2022-10-12T10:34:20;25.55;;;9.90;;
789;SDS011;378;48.844;9.156;2022-10-12T10:36:49;24.13;;;10.68;;
789;SDS011;378;48.844;9.156;2022-10-12T10:39:18;22.65;;;10.95;;
789;SDS011;378;48.844;9.156;2022-10-12T10:41:48;26.88;;;11.02;;
789;SDS011;378;48.844;9.156;2022-10-12T10:44:28;19.88;;;10.93;;
789;SDS011;378;48.844;9.156;2022-10-12T10:46:57;22.08;;;10.40;;
789;SDS011;378;48.844;9.156;2022-10-12T10:49:33;23.50;;;10.10;;
789;SDS011;378;48.844;9.156;2022-10-12T10:52:03;19.90;;;9.73;;
789;SDS011;378;48.844;9.156;2022-10-12T10:54:32;21.20;;;9.93;;
789;SDS011;378;48.844;9.156;2022-10-12T10:57:01;21.75;;;10.15;;
789;SDS011;378;48.844;9.156;2022-10-12T10:59:36;19.77;;;10.52;;
789;SDS011;378;48.844;9.156;2022-10-12T11:02:13;20.05;;;9.27;;
789;SDS011;378;48.844;9.156;2022-10-12T11:04:52;20.60;;;9.15;;
789;SDS011;378;48.844;9.156;2022-10-12T11:07:26;22.95;;;9.57;;
789;SDS011;378;48.844;9.156;2022-10-12T11:09:59;21.63;;;10.25;;
789;SDS011;378;48.844;9.156;2022-10-12T11:12:30;23.20;;;9.38;;
789;SDS011;378;48.844;9.156;2022-10-12T11:15:03;18.75;;;8.77;;
789;SDS011;378;48.844;9.156;2022-10-12T11:17:34;21.92;;;8.57;;
789;SDS011;378;48.844;9.156;2022-10-12T11:20:14;17.58;;;8.65;;
789;SDS011;378;48.844;9.156;2022-10-12T11:22:52;20.60;;;8.98;;
789;SDS011;378;48.844;9.156;2022-10-12T11:25:23;20.50;;;9.27;;
789;SDS011;378;48.844;9.156;2022-10-12T11:27:54;20.20;;;9.07;;
789;SDS011;378;48.844;9.156;2022-10-12T11:30:22;17.30;;;8.63;;
789;SDS011;378;48.844;9.156;2022-10-12T11:32:52;19.13;;;9.20;;
789;SDS011;378;48.844;9.156;2022-10-12T11:35:26;20.13;;;9.57;;
789;SDS011;378;48.844;9.156;2022-10-12T11:37:56;19.98;;;9.13;;
789;SDS011;378;48.844;9.156;2022-10-12T11:40:27;23.70;;;8.70;;
789;SDS011;378;48.844;9.156;2022-10-12T11:42:59;16.40;;;8.82;;
789;SDS011;378;48.844;9.156;2022-10-12T11:45:33;21.17;;;9.05;;
789;SDS011;378;48.844;9.156;2022-10-12T11:48:06;19.58;;;8.27;;
789;SDS011;378;48.844;9.156;2022-10-12T11:50:39;17.13;;;8.07;;
789;SDS011;378;48.844;9.156;2022-10-12T11:53:13;17.65;;;7.35;;
789;SDS011;378;48.844;9.156;2022-10-12T11:55:55;20.88;;;8.98;;
789;SDS011;378;48.844;9.156;2022-10-12T11:58:27;18.25;;;8.18;;
789;SDS011;378;48.844;9.156;2022-10-12T12:01:02;18.90;;;8.88;;
789;SDS011;378;48.844;9.156;2022-10-12T12:04:03;17.67;;;8.60;;
789;SDS011;378;48.844;9.156;2022-10-12T12:06:48;22.40;;;9.90;;
789;SDS011;378;48.844;9.156;2022-10-12T12:09:30;18.60;;;8.18;;
789;SDS011;378;48.844;9.156;2022-10-12T12:12:16;21.52;;;7.55;;
789;SDS011;378;48.844;9.156;2022-10-12T12:17:32;14.60;;;7.75;;
789;SDS011;378;48.844;9.156;2022-10-12T12:20:00;16.42;;;7.68;;
789;SDS011;378;48.844;9.156;2022-10-12T12:22:30;15.63;;;7.28;;
789;SDS011;378;48.844;9.156;2022-10-12T12:25:14;15.68;;;7.35;;
789;SDS011;378;48.844;9.156;2022-10-12T12:27:44;17.58;;;7.63;;
789;SDS011;378;48.844;9.156;2022-10-12T12:33:04;17.20;;;8.35;;
789;SDS011;378;48.844;9.156;2022-10-12T12:35:51;20.13;;;7.15;;
789;SDS011;378;48.844;9.156;2022-10-12T12:38:24;19.58;;;7.43;;
789;SDS011;378;48.844;9.156;2022-10-12T12:41:02;18.95;;;7.38;;
789;SDS011;378;48.844;9.156;2022-10-12T12:43:48;15.32;;;6.68;;
789;SDS011;378;48.844;9.156;2022-10-12T12:46:18;20.60;;;7.65;;
789;SDS011;378;48.844;9.156;2022-10-12T12:48:58;19.35;;;7.45;;
789;SDS011;378;48.844;9.156;2022-10-12T12:51:35;14.30;;;6.95;;
789;SDS011;378;48.844;9.156;2022-10-12T12:54:06;15.63;;;7.55;;
789;SDS011;378;48.844;9.156;2022-10-12T12:56:48;21.65;;;7.70;;
789;SDS011;378;48.844;9.156;2022-10-12T12:59:42;13.27;;;7.68;;
789;SDS011;378;48.844;9.156;2022-10-12T13:02:35;15.13;;;7.65;;
789;SDS011;378;48.844;9.156;2022-10-12T13:05:31;15.32;;;7.43;;
789;SDS011;378;48.844;9.156;2022-10-12T13:08:25;20.52;;;7.70;;
789;SDS011;378;48.844;9.156;2022-10-12T13:11:12;18.08;;;7.68;;
789;SDS011;378;48.844;9.156;2022-10-12T13:14:04;17.30;;;7.40;;
789;SDS011;378;48.844;9.156;2022-10-12T13:16:48;18.85;;;7.95;;
789;SDS011;378;48.844;9.156;2022-10-12T13:19:27;15.65;;;7.82;;
789;SDS011;378;48.844;9.156;2022-10-12T13:21:57;18.30;;;7.50;;
789;SDS011;378;48.844;9.156;2022-10-12T13:24:30;18.63;;;7.90;;
789;SDS011;378;48.844;9.156;2022-10-12T13:27:07;21.63;;;7.80;;
789;SDS011;378;48.844;9.156;2022-10-12T13:29:43;13.70;;;7.35;;
789;SDS011;378;48.844;9.156;2022-10-12T13:32:17;19.35;;;7.35;;
789;SDS011;378;48.844;9.156;2022-10-12T13:34:51;17.02;;;7.53;;
789;SDS011;378;48.844;9.156;2022-10-12T13:37:28;17.17;;;7.38;;
789;SDS011;378;48.844;9.156;2022-10-12T13:39:56;15.25;;;7.10;;
789;SDS011;378;48.844;9.156;2022-10-12T13:42:25;20.08;;;6.60;;
789;SDS011;378;48.844;9.156;2022-10-12T13:44:54;17.83;;;6.95;;
789;SDS011;378;48.844;9.156;2022-10-12T13:47:23;17.40;;;6.20;;
789;SDS011;378;48.844;9.156;2022-10-12T13:49:51;16.13;;;6.10;;
789;SDS011;378;48.844;9.156;2022-10-12T13:52:19;18.38;;;6.10;;
789;SDS011;378;48.844;9.156;2022-10-12T13:54:50;11.88;;;5.85;;
789;SDS011;378;48.844;9.156;2022-10-12T13:57:18;13.98;;;5.82;;
789;SDS011;378;48.844;9.156;2022-10-12T13:59:52;11.48;;;6.18;;
789;SDS011;378;48.844;9.156;2022-10-12T14:02:22;15.45;;;6.70;;
789;SDS011;378;48.844;9.156;2022-10-12T14:04:51;12.80;;;5.97;;
789;SDS011;378;48.844;9.156;2022-10-12T14:07:19;13.82;;;5.20;;
789;SDS011;378;48.844;9.156;2022-10-12T14:09:50;21.48;;;5.50;;
789;SDS011;378;48.844;9.156;2022-10-12T14:12:20;9.57;;;5.80;;
789;SDS011;378;48.844;9.156;2022-10-12T14:14:47;9.65;;;5.32;;
789;SDS011;378;48.844;9.156;2022-10-12T14:17:17;13.02;;;5.10;;
789;SDS011;378;48.844;9.156;2022-10-12T14:19:46;11.88;;;5.15;;
789;SDS011;378;48.844;9.156;2022-10-12T14:22:18;8.60;;;4.80;;
789;SDS011;378;48.844;9.156;2022-10-12T14:24:47;11.93;;;5.07;;
789;SDS011;378;48.844;9.156;2022-10-12T14:27:20;13.02;;;5.38;;
789;SDS011;378;48.844;9.156;2022-10-12T14:29:52;13.77;;;6.07;;
789;SDS011;378;48.844;9.156;2022-10-12T14:32:33;14.65;;;5.45;;
789;SDS011;378;48.844;9.156;2022-10-12T14:35:13;13.40;;;5.32;;
789;SDS011;378;48.844;9.156;2022-10-12T14:37:46;10.60;;;4.97;;
789;SDS011;378;48.844;9.156;2022-10-12T14:40:31;10.73;;;5.10;;
789;SDS011;378;48.844;9.156;2022-10-12T14:43:04;9.77;;;4.50;;
789;SDS011;378;48.844;9.156;2022-10-12T14:45:35;8.68;;;4.70;;
789;SDS011;378;48.844;9.156;2022-10-12T14:48:02;9.10;;;5.05;;
789;SDS011;378;48.844;9.156;2022-10-12T14:50:31;12.65;;;5.55;;
789;SDS011;378;48.844;9.156;2022-10-12T14:52:59;14.77;;;5.35;;
789;SDS011;378;48.844;9.156;2022-10-12T14:55:29;9.75;;;4.60;;
789;SDS011;378;48.844;9.156;2022-10-12T14:57:57;9.15;;;4.90;;
789;SDS011;378;48.844;9.156;2022-10-12T15:00:26;15.38;;;5.30;;
789;SDS011;378;48.844;9.156;2022-10-12T15:02:55;11.45;;;5.70;;
789;SDS011;378;48.844;9.156;2022-10-12T15:05:22;12.63;;;4.95;;
789;SDS011;378;48.844;9.156;2022-10-12T15:07:51;12.15;;;5.18;;
789;SDS011;378;48.844;9.156;2022-10-12T15:10:18;21.20;;;5.57;;
789;SDS011;378;48.844;9.156;2022-10-12T15:12:46;13.55;;;5.82;;
789;SDS011;378;48.844;9.156;2022-10-12T15:15:17;14.65;;;5.88;;
789;SDS011;378;48.844;9.156;2022-10-12T15:17:52;13.77;;;5.70;;
789;SDS011;378;48.844;9.156;2022-10-12T15:20:21;14.93;;;6.07;;
789;SDS011;378;48.844;9.156;2022-10-12T15:22:47;15.23;;;5.63;;
789;SDS011;378;48.844;9.156;2022-10-12T15:25:15;17.20;;;6.03;;
789;SDS011;378;48.844;9.156;2022-10-12T15:27:46;19.02;;;7.20;;
789;SDS011;378;48.844;9.156;2022-10-12T15:30:13;14.05;;;5.70;;
789;SDS011;378;48.844;9.156;2022-10-12T15:32:40;18.65;;;6.63;;
789;SDS011;378;48.844;9.156;2022-10-12T15:35:12;14.93;;;6.05;;
789;SDS011;378;48.844;9.156;2022-10-12T15:37:43;14.25;;;6.35;;
789;SDS011;378;48.844;9.156;2022-10-12T15:40:10;13.23;;;5.95;;
789;SDS011;378;48.844;9.156;2022-10-12T15:42:38;17.05;;;6.40;;
789;SDS011;378;48.844;9.156;2022-10-12T15:45:11;13.73;;;6.32;;
789;SDS011;378;48.844;9.156;2022-10-12T15:47:42;13.75;;;6.32;;